Nearby METAR Reports

 

KTEB - Teterboro, New Jersey, USA
Distance from station: ENE 2mi, 4km
Updated: 01/26/2023 11:51pm
Overcast
Overcast
 Wind from W
Wind: W 7 mph , 11 km/h
Temperature: 39°F , 4°C
Wind Chill: 34°F , 1°C
Dew Point: 27°F , -3°C
Humidity: 61%
Barometer: 29.90 inHg , 1012.5 hPa
Clouds: Overcast
Visibility: 10 miles , 16 km
Cloud details: Mostly cloudy 4100 ft
Overcast 5500 ft
2023/01/27 04:51 KTEB 270451Z 26006KT 10SM BKN041 OVC055 04/M03 A2990 RMK AO2 RAB00E10 SLP123 P0000 T00391033 401330039
KNYC - Nyc/Central Park, New York, USA
Distance from station: SE 8mi, 13km
Updated: 01/26/2023 11:51pm
Overcast
Overcast
 Wind from WSW
Wind: WSW 13 mph , 20 km/h, Gust: 21 mph , 33 km/h
Temperature: 41°F , 5°C
Wind Chill: 34°F , 1°C
Dew Point: 25°F , -4°C
Humidity: 53%
Barometer: 29.91 inHg , 1012.9 hPa
Clouds: Overcast
Visibility: 10 miles , 16 km
Cloud details: Overcast 6000 ft
2023/01/27 04:51 KNYC 270451Z AUTO 25011G18KT 210V280 10SM OVC060 05/M04 A2991 RMK AO2 SLP122 T00501039 401390050
 
KCDW - Caldwell, New Jersey, USA
Distance from station: WNW 10mi, 17km
Updated: 01/26/2023 11:53pm
Overcast
Overcast
 Wind from varies
Wind: varies 7 mph , 11 km/h
Temperature: 39°F , 4°C
Wind Chill: 34°F , 1°C
Dew Point: 25°F , -4°C
Humidity: 56%
Barometer: 29.90 inHg , 1012.5 hPa
Clouds: Overcast
Visibility: 10 miles , 16 km
Cloud details: Mostly cloudy 4300 ft
Overcast 6000 ft
2023/01/27 04:53 KCDW 270453Z AUTO VRB06KT 10SM BKN043 OVC060 04/M04 A2990 RMK AO2 SLP132 T00441039 401390039
KLGA - Nyc/La Guardia, New York, USA
Distance from station: ESE 12mi, 19km
Updated: 01/26/2023 11:51pm
Overcast
Overcast
 Wind from W
Wind: W 14 mph , 22 km/h
Temperature: 41°F , 5°C
Wind Chill: 33°F , 1°C
Dew Point: 25°F , -4°C
Humidity: 53%
Barometer: 29.90 inHg , 1012.5 hPa
Clouds: Overcast
Visibility: 10 miles , 16 km
Cloud details: Overcast 6000 ft
2023/01/27 04:51 KLGA 270451Z 26012KT 10SM OVC060 05/M04 A2990 RMK AO2 SLP123 T00501044 401220050
 
KEWR - Newark, New Jersey, USA
Distance from station: SSW 12mi, 20km
Updated: 01/26/2023 11:51pm
Mostly cloudy
Mostly cloudy
 Wind from SW
Wind: SW 12 mph , 19 km/h
Temperature: 39°F , 4°C
Wind Chill: 32°F , 0°C
Dew Point: 27°F , -3°C
Humidity: 61%
Barometer: 29.91 inHg , 1012.9 hPa
Clouds: Mostly cloudy
Visibility: 10 miles , 16 km
Cloud details: Mostly cloudy 6500 ft
2023/01/27 04:51 KEWR 270451Z 23010KT 10SM BKN065 04/M03 A2991 RMK AO2 SLP127 T00441033 401440044
KMMU - Morristown Muni, New Jersey, USA
Distance from station: WSW 18mi, 29km
Updated: 01/27/2023 12:15am
Partly cloudy
Partly cloudy
 Wind from WSW
Wind: WSW 9 mph , 15 km/h
Temperature: 37°F , 3°C
Wind Chill: 30°F , -1°C
Dew Point: 27°F , -3°C
Humidity: 65%
Barometer: 29.91 inHg , 1012.9 hPa
Clouds: Partly cloudy
Visibility: 10 miles , 16 km
Cloud details: Partly cloudy 6000 ft
2023/01/27 05:15 KMMU 270515Z AUTO 24008KT 10SM SCT060 03/M03 A2991 RMK AO2 P0001
 
KJFK - Nyc/Jfk Arpt, New York, USA
Distance from station: SE 23mi, 36km
Updated: 01/26/2023 11:51pm
Mostly cloudy
Mostly cloudy
 Wind from W
Wind: W 17 mph , 28 km/h
Temperature: 39°F , 4°C
Wind Chill: 30°F , -1°C
Dew Point: 27°F , -3°C
Humidity: 61%
Barometer: 29.91 inHg , 1012.9 hPa
Clouds: Mostly cloudy
Visibility: 10 miles , 16 km
Cloud details: Mostly cloudy 6500 ft
2023/01/27 04:51 KJFK 270451Z 26015KT 10SM BKN065 04/M03 A2991 RMK AO2 SLP129 T00441028 401110044
KHPN - White Plains, New York, USA
Distance from station: NE 25mi, 40km
Updated: 01/26/2023 11:56pm
Partly cloudy
Partly cloudy
 Wind from WNW
Wind: WNW 6 mph , 9 km/h
Temperature: 36°F , 2°C
Wind Chill: 31°F , -1°C
Dew Point: 25°F , -4°C
Humidity: 65%
Barometer: 29.87 inHg , 1011.5 hPa
Clouds: Partly cloudy
Visibility: 9 miles , 14 km
Cloud details: Few Clouds 4000 ft
Partly cloudy 10000 ft
2023/01/27 04:56 KHPN 270456Z 30005KT 9SM FEW040 SCT100 02/M04 A2987 RMK AO2 SNE52 SLP119 P0000 T00221044 401220022
 
KSMQ - Somerville, New Jersey, USA
Distance from station: WSW 34mi, 55km
Updated: 01/26/2023 11:53pm
Partly cloudy
Partly cloudy
 Wind from WSW
Wind: WSW 5 mph , 7 km/h
Temperature: 37°F , 3°C
Wind Chill: 33°F , 1°C
Dew Point: 27°F , -3°C
Humidity: 65%
Barometer: 29.91 inHg , 1012.9 hPa
Clouds: Partly cloudy
Cloud details: Partly cloudy 6000 ft
2023/01/27 04:53 KSMQ 270453Z AUTO 25004KT SCT060 03/M03 A2991 RMK AO2 SLP129 T00331028 401280033
K12N - Andover, New Jersey, USA
Distance from station: WNW 36mi, 57km
Updated: 01/26/2023 11:54pm

 Wind from SSW
Wind: SSW 6 mph , 9 km/h
Temperature: 37°F , 3°C
Wind Chill: 32°F , 0°C
Dew Point: 27°F , -3°C
Humidity: 65%
Barometer: 29.88 inHg , 1011.9 hPa
2023/01/27 04:54 K12N 270454Z AUTO 20005KT 03/M03 A2988 RMK AO1 SLP126 T00331033 400720033
 
KFRG - Farmingdale, New York, USA
Distance from station: ESE 36mi, 58km
Updated: 01/26/2023 11:53pm
Overcast
Overcast
 Wind from WSW
Wind: WSW 9 mph , 15 km/h
Temperature: 41°F , 5°C
Wind Chill: 35°F , 2°C
Dew Point: 27°F , -3°C
Humidity: 57%
Barometer: 29.89 inHg , 1012.2 hPa
Clouds: Overcast
Visibility: 10 miles , 16 km
Cloud details: Overcast 7000 ft
2023/01/27 04:53 KFRG 270453Z AUTO 25008KT 10SM OVC070 05/M03 A2989 RMK AO2 SLP123 T00501033 401280044
KFWN - Sussex, New Jersey, USA
Distance from station: NW 37mi, 60km
Updated: 01/26/2023 11:53pm
Overcast
Overcast
 Wind from W
Wind: W 5 mph , 7 km/h
Temperature: 37°F , 3°C
Wind Chill: 33°F , 1°C
Dew Point: 25°F , -4°C
Humidity: 60%
Barometer: 29.88 inHg , 1011.9 hPa
Clouds: Overcast
Visibility: 10 miles , 16 km
Cloud details: Overcast 6000 ft
2023/01/27 04:53 KFWN 270453Z AUTO 28004KT 10SM OVC060 03/M04 A2988 RMK AO2 SLP121 T00331044 400610022
 
KSWF - Newburgh/Stewart, New York, USA
Distance from station: 0 45mi, 72km
Updated: 01/26/2023 11:45pm
Mostly cloudy
Mostly cloudy
 Wind from W
Wind: W 12 mph , 19 km/h
Temperature: 34°F , 1°C
Wind Chill: 25°F , -4°C
Dew Point: 23°F , -5°C
Humidity: 65%
Barometer: 29.86 inHg , 1011.2 hPa
Clouds: Mostly cloudy
Visibility: 10 miles , 16 km
Cloud details: Mostly cloudy 5000 ft
2023/01/27 04:45 KSWF 270445Z 28010KT 10SM BKN050 01/M05 A2986
KMGJ - Montgomery, New York, USA
Distance from station: NNW 47mi, 75km
Updated: 01/26/2023 11:54pm
Overcast
Overcast
 Wind from W
Wind: W 3 mph , 6 km/h
Temperature: 32°F , 0°C
Dew Point: 21°F , -6°C
Humidity: 64%
Barometer: 29.86 inHg , 1011.2 hPa
Clouds: Overcast
Visibility: 10 miles , 16 km
Cloud details: Mostly cloudy 5000 ft
Overcast 11000 ft
2023/01/27 04:54 KMGJ 270454Z AUTO 27003KT 10SM BKN050 OVC110 00/M06 A2986 RMK AO2 SLP115 T00001061 400501006
 
KBLM - Belmar/Farmdale, New Jersey, USA
Distance from station: S 47mi, 76km
Updated: 01/26/2023 11:56pm
Clear
Clear
 Wind from W
Wind: W 12 mph , 19 km/h
Barometer: 29.95 inHg , 1014.2 hPa
Clouds: Clear
Visibility: 10 miles , 16 km
2023/01/27 04:56 KBLM 270456Z AUTO 27010KT 10SM CLR A2995 RMK AO2 SLPNO FZRANO $
KDXR - Danbury, Connecticut, USA
Distance from station: NE 47mi, 76km
Updated: 01/26/2023 11:53pm
Few Clouds
Few Clouds
 Wind from W
Wind: W 9 mph , 15 km/h
Temperature: 37°F , 3°C
Wind Chill: 30°F , -1°C
Dew Point: 19°F , -7°C
Humidity: 48%
Barometer: 29.87 inHg , 1011.5 hPa
Clouds: Few Clouds
Visibility: 10 miles , 16 km
Cloud details: Few Clouds 5500 ft
2023/01/27 04:53 KDXR 270453Z AUTO 27008KT 10SM FEW055 03/M07 A2987 RMK AO2 SLP115 T00281067 401390028
 
KISP - Islip, New York, USA
Distance from station: E 52mi, 83km
Updated: 01/26/2023 11:56pm
Mostly cloudy
Mostly cloudy
 Wind from WSW
Wind: WSW 10 mph , 17 km/h
Temperature: 39°F , 4°C
Wind Chill: 32°F , 0°C
Dew Point: 27°F , -3°C
Humidity: 61%
Barometer: 29.88 inHg , 1011.9 hPa
Clouds: Mostly cloudy
Visibility: 10 miles , 16 km
Cloud details: Mostly cloudy 6500 ft
2023/01/27 04:56 KISP 270456Z 25009KT 10SM BKN065 04/M03 A2988 RMK AO2 SLP120 LAST T00391028 401280039
KBDR - Bridgeport, Connecticut, USA
Distance from station: ENE 54mi, 87km
Updated: 01/26/2023 11:52pm
Overcast
Overcast
 Wind from W
Wind: W 14 mph , 22 km/h, Gust: 24 mph , 39 km/h
Temperature: 39°F , 4°C
Wind Chill: 31°F , -1°C
Dew Point: 21°F , -6°C
Humidity: 48%
Barometer: 29.87 inHg , 1011.5 hPa
Clouds: Overcast
Visibility: 10 miles , 16 km
Cloud details: Overcast 6000 ft
2023/01/27 04:52 KBDR 270452Z AUTO 28012G21KT 10SM OVC060 04/M06 A2987 RMK AO2 SLP114 T00391056 401170039
 
KTTN - Trenton, New Jersey, USA
Distance from station: SW 55mi, 88km
Updated: 01/26/2023 11:53pm
Partly cloudy
Partly cloudy
 Wind from W
Wind: W 7 mph , 11 km/h
Temperature: 37°F , 3°C
Wind Chill: 32°F , 0°C
Dew Point: 27°F , -3°C
Humidity: 65%
Barometer: 29.93 inHg , 1013.5 hPa
Clouds: Partly cloudy
Visibility: 10 miles , 16 km
Cloud details: Partly cloudy 9000 ft
2023/01/27 04:53 KTTN 270453Z AUTO 27006KT 10SM SCT090 03/M03 A2993 RMK AO2 SLP130 T00281033 401440028
KPOU - Poughkeepsie, New York, USA
Distance from station: N 55mi, 89km
Updated: 01/26/2023 11:53pm
Overcast
Overcast
 Wind from W
Wind: W 8 mph , 13 km/h
Temperature: 37°F , 3°C
Wind Chill: 31°F , -1°C
Dew Point: 25°F , -4°C
Humidity: 60%
Barometer: 29.87 inHg , 1011.5 hPa
Clouds: Overcast
Visibility: 10 miles , 16 km
Cloud details: Partly cloudy 3900 ft
Overcast 4900 ft
2023/01/27 04:53 KPOU 270453Z AUTO 28007KT 10SM SCT039 OVC049 03/M04 A2987 RMK AO2 SLP112 T00281039 400670028
 
KNEL - Lakehurst Nas, New Jersey, USA
Distance from station: SSW 59mi, 95km
Updated: 01/27/2023 12:00am
Few Clouds
Few Clouds
 Wind from W
Wind: W 5 mph , 7 km/h
Temperature: 36°F , 2°C
Wind Chill: 32°F , 0°C
Dew Point: 27°F , -3°C
Humidity: 70%
Barometer: 29.94 inHg , 1013.9 hPa
Clouds: Few Clouds
Cloud details: Few Clouds 7000 ft
2023/01/27 05:00 KNEL 270500Z AUTO 26004KT FEW070 02/M03 A2994 RMK AO2 SLP138 T00171028 400170017 PNO $
KWRI - Wrightst/Mcguire, New Jersey, USA
Distance from station: SSW 63mi, 102km
Updated: 01/26/2023 11:55pm
Mostly cloudy
Mostly cloudy
 Wind from W
Wind: W 6 mph , 9 km/h
Temperature: 37°F , 3°C
Wind Chill: 32°F , 0°C
Dew Point: 28°F , -2°C
Humidity: 70%
Barometer: 29.95 inHg , 1014.2 hPa
Clouds: Mostly cloudy
Visibility: 10 miles , 16 km
Cloud details: Mostly cloudy 7000 ft
2023/01/27 04:55 KWRI 270455Z AUTO 27005KT 10SM BKN070 03/M02 A2995 RMK AO2 SLP143 T00281021 401410027 $
 
KHWV - Shirley, New York, USA
Distance from station: E 64mi, 103km
Updated: 01/26/2023 11:56pm
Overcast
Overcast
 Wind from SW
Wind: SW 7 mph , 11 km/h
Temperature: 39°F , 4°C
Wind Chill: 34°F , 1°C
Dew Point: 27°F , -3°C
Humidity: 61%
Barometer: 29.89 inHg , 1012.2 hPa
Clouds: Overcast
Visibility: 10 miles , 16 km
Cloud details: Overcast 6500 ft
2023/01/27 04:56 KHWV 270456Z AUTO 23006KT 10SM OVC065 04/M03 A2989 RMK AO2 SLP121 T00441033 401330044
KMJX - Toms River, New Jersey, USA
Distance from station: S 64mi, 104km
Updated: 01/20/2023 10:56am
NOT Current
Mostly cloudy
Mostly cloudy
 Wind from W
Wind: W 18 mph , 30 km/h, Gust: 25 mph , 41 km/h
Temperature: 48°F , 9°C
Wind Chill: 41°F , 5°C
Dew Point: 36°F , 2°C
Humidity: 62%
Barometer: 29.70 inHg , 1005.8 hPa
Clouds: Mostly cloudy
Visibility: 10 miles , 16 km
Cloud details: Mostly cloudy 4500 ft
2023/01/20 15:56 KMJX 201556Z AUTO 28016G22KT 10SM BKN045 09/02 A2970 RMK AO2 SLP062 T00940017 TSNO
 
KDYL - Doylestown, Pennsylvania, USA
Distance from station: SW 65mi, 104km
Updated: 01/26/2023 11:54pm
Overcast
Overcast
 Wind from W
Wind: W 6 mph , 9 km/h
Temperature: 37°F , 3°C
Wind Chill: 32°F , 0°C
Dew Point: 27°F , -3°C
Humidity: 65%
Barometer: 29.93 inHg , 1013.5 hPa
Clouds: Overcast
Visibility: 10 miles , 16 km
Cloud details: Overcast 5000 ft
2023/01/27 04:54 KDYL 270454Z AUTO 26005KT 10SM OVC050 03/M03 A2993 RMK AO2 SLP138 T00331028 401220033
KOXC - Oxford/Waterbury, Connecticut, USA
Distance from station: NE 65mi, 105km
Updated: 01/26/2023 11:51pm
Overcast
Overcast
 Wind from W
Wind: W 12 mph , 19 km/h, Gust: 18 mph , 30 km/h
Temperature: 36°F , 2°C
Wind Chill: 28°F , -2°C
Dew Point: 23°F , -5°C
Humidity: 60%
Barometer: 29.84 inHg , 1010.5 hPa
Clouds: Overcast
Visibility: 10 miles , 16 km
Cloud details: Overcast 4800 ft
2023/01/27 04:51 KOXC 270451Z AUTO 27010G16KT 230V300 10SM OVC048 02/M05 A2984 RMK AO2 SLP121 T00221050 401170017 FZRANO
 
KMSV - Monticello, New York, USA
Distance from station: NNW 69mi, 111km
Updated: 01/26/2023 11:56pm
Light snow, Overcast
Light snow, Overcast
 Wind from W
Wind: W 7 mph , 11 km/h
Temperature: 28°F , -2°C
Wind Chill: 21°F , -6°C
Dew Point: 25°F , -4°C
Humidity: 86%
Barometer: 29.84 inHg , 1010.5 hPa
Summary: Light Snow
Clouds: Overcast
Visibility: 9 miles , 14 km
Cloud details: Overcast 2100 ft
2023/01/27 04:56 KMSV 270456Z AUTO 28006KT 9SM -SN OVC021 M02/M04 A2984 RMK AO2 SLP119 P0000 T10171039 400171017 FZRANO
KHVN - New Haven/Tweed, Connecticut, USA
Distance from station: ENE 70mi, 112km
Updated: 01/26/2023 11:53pm
Clear
Clear
 Wind from varies
Wind: varies 6 mph , 9 km/h
Temperature: 43°F , 6°C
Wind Chill: 39°F , 4°C
Dew Point: 27°F , -3°C
Humidity: 53%
Barometer: 29.86 inHg , 1011.2 hPa
Clouds: Clear
Visibility: 10 miles , 16 km
2023/01/27 04:53 KHVN 270453Z AUTO VRB05KT 10SM CLR 06/M03 A2986 RMK AO2 SLP110 T00561033 401280056
 
KMPO - Mt. Pocono, Pennsylvania, USA
Distance from station: WNW 70mi, 113km
Updated: 01/26/2023 11:53pm
Partly cloudy
Partly cloudy
 Wind from W
Wind: W 15 mph , 24 km/h
Temperature: 28°F , -2°C
Wind Chill: 16°F , -9°C
Dew Point: 23°F , -5°C
Humidity: 80%
Barometer: 29.82 inHg , 1009.8 hPa
Clouds: Partly cloudy
Visibility: 10 miles , 16 km
Cloud details: Few Clouds 1900 ft
Partly cloudy 2400 ft
Partly cloudy 3400 ft
2023/01/27 04:53 KMPO 270453Z AUTO 27013KT 10SM FEW019 SCT024 SCT034 M02/M05 A2982 RMK AO2 SLP117 T10171050 400501017
KPNE - Philadelphia/Ne, Pennsylvania, USA
Distance from station: SW 72mi, 116km
Updated: 01/26/2023 11:54pm
Overcast
Overcast
 Wind from W
Wind: W 8 mph , 13 km/h
Temperature: 39°F , 4°C
Wind Chill: 33°F , 1°C
Dew Point: 28°F , -2°C
Humidity: 65%
Barometer: 29.96 inHg , 1014.6 hPa
Clouds: Overcast
Visibility: 10 miles , 16 km
Cloud details: Few Clouds 3000 ft
Partly cloudy 5500 ft
Overcast 9000 ft
2023/01/27 04:54 KPNE 270454Z AUTO 27007KT 10SM FEW030 SCT055 OVC090 04/M02 A2996 RMK AO2 SLP147 T00391022 401500033
 
KABE - Allentown, Pennsylvania, USA
Distance from station: W 73mi, 117km
Updated: 01/26/2023 11:51pm
Clear
Clear
 Wind from WSW
Wind: WSW 6 mph , 9 km/h
Temperature: 32°F , 0°C
Wind Chill: 26°F , -3°C
Dew Point: 25°F , -4°C
Humidity: 75%
Barometer: 29.92 inHg , 1013.2 hPa
Clouds: Clear
Visibility: 10 miles , 16 km
2023/01/27 04:51 KABE 270451Z 24005KT 10SM CLR 00/M04 A2992 RMK AO2 SLP136 T00001044 400561006
KUKT - Quakertown Arp, Pennsylvania, USA
Distance from station: WSW 74mi, 119km
Updated: 01/27/2023 12:15am
Mostly cloudy
Mostly cloudy
 Wind from varies
Wind: varies 6 mph , 9 km/h, Gust: 14 mph , 22 km/h
Temperature: 37°F , 3°C
Wind Chill: 32°F , 0°C
Dew Point: 28°F , -2°C
Humidity: 70%
Barometer: 29.93 inHg , 1013.5 hPa
Clouds: Mostly cloudy
Visibility: 10 miles , 16 km
Cloud details: Few Clouds 3100 ft
Partly cloudy 3600 ft
Mostly cloudy 4800 ft
2023/01/27 05:15 KUKT 270515Z AUTO VRB05G12KT 10SM FEW031 SCT036 BKN048 03/M02 A2993 RMK A01
 
KVAY - Mount Holly, New Jersey, USA
Distance from station: SSW 75mi, 120km
Updated: 01/26/2023 11:54pm
Few Clouds
Few Clouds
 Wind from WSW
Wind: WSW 5 mph , 7 km/h
Temperature: 39°F , 4°C
Wind Chill: 35°F , 2°C
Dew Point: 27°F , -3°C
Humidity: 61%
Barometer: 29.96 inHg , 1014.6 hPa
Clouds: Few Clouds
Visibility: 10 miles , 16 km
Cloud details: Few Clouds 10000 ft
2023/01/27 04:54 KVAY 270454Z AUTO 25004KT 10SM FEW100 04/M03 A2996 RMK AO2 SLP145 T00391028 401440033
KXLL - Allentown Queen, Pennsylvania, USA
Distance from station: WSW 76mi, 122km
Updated: 12/29/2022 2:15am
NOT Current
Clear
Clear
 Wind from calm
Wind: Calm
Temperature: 30°F , -1°C
Dew Point: 27°F , -3°C
Humidity: 86%
Barometer: 30.30 inHg , 1026.1 hPa
Clouds: Clear
Visibility: 10 miles , 16 km
2022/12/29 07:15 KXLL 290715Z AUTO 00000KT 10SM CLR M01/M03 A3030 RMK AO2
 
KFOK - Westhampton Beac, New York, USA
Distance from station: E 77mi, 124km
Updated: 01/26/2023 11:53pm
Overcast
Overcast
 Wind from WSW
Wind: WSW 8 mph , 13 km/h
Temperature: 39°F , 4°C
Wind Chill: 33°F , 1°C
Dew Point: 27°F , -3°C
Humidity: 61%
Barometer: 29.89 inHg , 1012.2 hPa
Clouds: Overcast
Visibility: 10 miles , 16 km
Cloud details: Overcast 6500 ft
2023/01/27 04:53 KFOK 270453Z AUTO 25007KT 10SM OVC065 04/M03 A2989 RMK AO2 SLP122 T00391028 401280039
KLOM - Philly Wings F, Pennsylvania, USA
Distance from station: SW 79mi, 128km
Updated: 01/27/2023 12:15am
Overcast
Overcast
 Wind from WSW
Wind: WSW 5 mph , 7 km/h
Temperature: 37°F , 3°C
Wind Chill: 33°F , 1°C
Dew Point: 30°F , -1°C
Humidity: 75%
Barometer: 29.95 inHg , 1014.2 hPa
Clouds: Overcast
Visibility: 10 miles , 16 km
Cloud details: Overcast 4500 ft
2023/01/27 05:15 KLOM 270515Z AUTO 25004KT 10SM OVC045 03/M01 A2995 RMK AO2 T00291008
 
KMMK - Meriden, Connecticut, USA
Distance from station: NE 80mi, 128km
Updated: 01/26/2023 11:53pm
Mostly cloudy
Mostly cloudy
 Wind from WNW
Wind: WNW 6 mph , 9 km/h
Temperature: 37°F , 3°C
Wind Chill: 32°F , 0°C
Dew Point: 21°F , -6°C
Humidity: 52%
Barometer: 29.85 inHg , 1010.8 hPa
Clouds: Mostly cloudy
Visibility: 10 miles , 16 km
Cloud details: Mostly cloudy 6000 ft
2023/01/27 04:53 KMMK 270453Z AUTO 29005KT 10SM BKN060 03/M06 A2985 RMK AO2 SLP109 T00331056 401330033
KPTW - Pottstown, Pennsylvania, USA
Distance from station: WSW 88mi, 141km
Updated: 01/23/2023 12:01pm
NOT Current
Light rain, Mist, Overcast
Light rain, Mist, Overcast
 Wind from WNW
Wind: WNW 9 mph , 15 km/h
Temperature: 36°F , 2°C
Wind Chill: 29°F , -2°C
Dew Point: 34°F , 1°C
Humidity: 93%
Barometer: 29.66 inHg , 1004.4 hPa
Summary: Light rain, Mist
Clouds: Overcast
Visibility: 6 miles , 10 km
Cloud details: Partly cloudy 1100 ft
Mostly cloudy 1900 ft
Overcast 2500 ft
2023/01/23 17:01 KPTW 231701Z AUTO 29008KT 6SM -RA BR SCT011 BKN019 OVC025 02/01 A2966 RMK AO2 P0001 T00170011
 
KSNC - Chester, Connecticut, USA
Distance from station: ENE 90mi, 146km
Updated: 01/27/2023 12:15am
Partly cloudy
Partly cloudy
 Wind from varies
Wind: varies 5 mph , 7 km/h, Gust: 12 mph , 19 km/h
Temperature: 37°F , 3°C
Wind Chill: 33°F , 1°C
Dew Point: 21°F , -6°C
Humidity: 52%
Barometer: 29.85 inHg , 1010.8 hPa
Clouds: Partly cloudy
Visibility: 10 miles , 16 km
Cloud details: Partly cloudy 5500 ft
2023/01/27 05:15 KSNC 270515Z AUTO VRB04G10KT 10SM SCT055 03/M06 A2985 RMK AO2
KPHL - Philadelphia, Pennsylvania, USA
Distance from station: SW 91mi, 146km
Updated: 01/26/2023 11:54pm
Partly cloudy
Partly cloudy
 Wind from WSW
Wind: WSW 13 mph , 20 km/h
Temperature: 39°F , 4°C
Wind Chill: 31°F , -1°C
Dew Point: 28°F , -2°C
Humidity: 65%
Barometer: 29.97 inHg , 1014.9 hPa
Clouds: Partly cloudy
Visibility: 10 miles , 16 km
Cloud details: Few Clouds 7000 ft
Partly cloudy 10000 ft
Partly cloudy 25000 ft
2023/01/27 04:54 KPHL 270454Z 25011KT 10SM FEW070 SCT100 SCT250 04/M02 A2997 RMK AO2 SLP148 T00391022 401440011
 
KAVP - Avoca/Wilkes B., Pennsylvania, USA
Distance from station: WNW 91mi, 147km
Updated: 01/26/2023 11:54pm
Clear
Clear
 Wind from W
Wind: W 10 mph , 17 km/h
Temperature: 34°F , 1°C
Wind Chill: 26°F , -3°C
Dew Point: 25°F , -4°C
Humidity: 70%
Barometer: 29.87 inHg , 1011.5 hPa
Clouds: Clear
Visibility: 10 miles , 16 km
2023/01/27 04:54 KAVP 270454Z 26009KT 10SM CLR 01/M04 A2987 RMK AO2 SLP121 T00061044 400560006
KHFD - Hartford/Brainar, Connecticut, USA
Distance from station: NE 96mi, 155km
Updated: 01/26/2023 11:53pm
Overcast
Overcast
 Wind from NNW
Wind: NNW 6 mph , 9 km/h
Temperature: 37°F , 3°C
Wind Chill: 32°F , 0°C
Dew Point: 23°F , -5°C
Humidity: 56%
Barometer: 29.86 inHg , 1011.2 hPa
Clouds: Overcast
Visibility: 10 miles , 16 km
Cloud details: Overcast 5500 ft
2023/01/27 04:53 KHFD 270453Z 33005KT 10SM OVC055 03/M05 A2986 RMK AO2 SLP109 T00331050 400940022
 
KHTO - East Hampton, New York, USA
Distance from station: E 96mi, 155km
Updated: 05/21/2022 1:35pm
NOT Current
Clear
Clear
 Wind from WNW
Wind: WNW 5 mph , 7 km/h
Temperature: 81°F , 27°C
Heat Index: 83°F , 28°C
Dew Point: 66°F , 19°C
Humidity: 62%
Barometer: 30.00 inHg , 1015.9 hPa
Clouds: Clear
Visibility: 10 miles , 16 km
2022/05/21 17:35 KHTO 211735Z AUTO 30004KT 10SM CLR 27/19 A3000 RMK AO2 T02670193
KACY - Atlantic City, New Jersey, USA
Distance from station: SSW 99mi, 160km
Updated: 01/26/2023 11:54pm
Clear
Clear
 Wind from W
Wind: W 9 mph , 15 km/h
Temperature: 37°F , 3°C
Wind Chill: 30°F , -1°C
Dew Point: 27°F , -3°C
Humidity: 65%
Barometer: 29.97 inHg , 1014.9 hPa
Clouds: Clear
Visibility: 10 miles , 16 km
2023/01/27 04:54 KACY 270454Z 26008KT 10SM CLR 03/M03 A2997 RMK AO2 SLP149 T00331028 401330033